sensor_id;sensor_type;location;lat;lon;timestamp;P1;durP1;ratioP1;P2;durP2;ratioP2
71773;SDS011;59607;52.130;5.430;2023-04-06T00:01:47;13.45;;;6.57;;
71773;SDS011;59607;52.130;5.430;2023-04-06T00:04:13;11.68;;;6.85;;
71773;SDS011;59607;52.130;5.430;2023-04-06T00:06:47;11.40;;;6.82;;
71773;SDS011;59607;52.130;5.430;2023-04-06T00:09:14;8.57;;;6.65;;
71773;SDS011;59607;52.130;5.430;2023-04-06T00:11:44;10.20;;;6.73;;
71773;SDS011;59607;52.130;5.430;2023-04-06T00:14:11;12.57;;;6.80;;
71773;SDS011;59607;52.130;5.430;2023-04-06T00:16:37;10.13;;;7.15;;
71773;SDS011;59607;52.130;5.430;2023-04-06T00:19:07;10.35;;;6.88;;
71773;SDS011;59607;52.130;5.430;2023-04-06T00:21:36;11.82;;;7.07;;
71773;SDS011;59607;52.130;5.430;2023-04-06T00:24:03;8.23;;;6.47;;
71773;SDS011;59607;52.130;5.430;2023-04-06T00:26:32;9.85;;;6.95;;
71773;SDS011;59607;52.130;5.430;2023-04-06T00:28:59;10.90;;;6.30;;
71773;SDS011;59607;52.130;5.430;2023-04-06T00:31:25;9.35;;;7.25;;
71773;SDS011;59607;52.130;5.430;2023-04-06T00:33:51;10.05;;;6.63;;
71773;SDS011;59607;52.130;5.430;2023-04-06T00:36:27;14.03;;;7.67;;
71773;SDS011;59607;52.130;5.430;2023-04-06T00:38:53;13.70;;;7.47;;
71773;SDS011;59607;52.130;5.430;2023-04-06T00:41:21;11.80;;;6.53;;
71773;SDS011;59607;52.130;5.430;2023-04-06T00:43:47;9.52;;;6.47;;
71773;SDS011;59607;52.130;5.430;2023-04-06T00:46:13;13.93;;;7.35;;
71773;SDS011;59607;52.130;5.430;2023-04-06T00:48:40;9.37;;;6.37;;
71773;SDS011;59607;52.130;5.430;2023-04-06T00:51:20;8.02;;;6.20;;
71773;SDS011;59607;52.130;5.430;2023-04-06T00:54:03;10.82;;;6.38;;
71773;SDS011;59607;52.130;5.430;2023-04-06T00:56:30;13.07;;;7.15;;
71773;SDS011;59607;52.130;5.430;2023-04-06T00:59:04;9.25;;;6.95;;
71773;SDS011;59607;52.130;5.430;2023-04-06T01:01:38;9.10;;;6.43;;
71773;SDS011;59607;52.130;5.430;2023-04-06T01:04:04;11.05;;;7.00;;
71773;SDS011;59607;52.130;5.430;2023-04-06T01:06:34;12.57;;;6.38;;
71773;SDS011;59607;52.130;5.430;2023-04-06T01:09:01;13.25;;;6.57;;
71773;SDS011;59607;52.130;5.430;2023-04-06T01:11:28;12.85;;;6.70;;
71773;SDS011;59607;52.130;5.430;2023-04-06T01:13:55;10.17;;;6.50;;
71773;SDS011;59607;52.130;5.430;2023-04-06T01:16:21;10.75;;;6.55;;
71773;SDS011;59607;52.130;5.430;2023-04-06T01:18:52;9.15;;;6.50;;
71773;SDS011;59607;52.130;5.430;2023-04-06T01:21:18;9.70;;;6.40;;
71773;SDS011;59607;52.130;5.430;2023-04-06T01:23:50;8.60;;;6.35;;
71773;SDS011;59607;52.130;5.430;2023-04-06T01:26:17;9.53;;;7.33;;
71773;SDS011;59607;52.130;5.430;2023-04-06T01:28:44;9.73;;;6.75;;
71773;SDS011;59607;52.130;5.430;2023-04-06T01:31:16;11.02;;;6.75;;
71773;SDS011;59607;52.130;5.430;2023-04-06T01:33:43;9.75;;;6.55;;
71773;SDS011;59607;52.130;5.430;2023-04-06T01:36:19;7.07;;;5.90;;
71773;SDS011;59607;52.130;5.430;2023-04-06T01:38:46;10.00;;;6.43;;
71773;SDS011;59607;52.130;5.430;2023-04-06T01:41:15;10.57;;;6.78;;
71773;SDS011;59607;52.130;5.430;2023-04-06T01:43:42;9.85;;;6.63;;
71773;SDS011;59607;52.130;5.430;2023-04-06T01:46:09;12.70;;;6.22;;
71773;SDS011;59607;52.130;5.430;2023-04-06T01:48:36;11.52;;;6.80;;
71773;SDS011;59607;52.130;5.430;2023-04-06T01:51:08;10.17;;;6.37;;
71773;SDS011;59607;52.130;5.430;2023-04-06T01:53:36;13.38;;;6.68;;
71773;SDS011;59607;52.130;5.430;2023-04-06T01:56:05;9.52;;;6.85;;
71773;SDS011;59607;52.130;5.430;2023-04-06T01:58:35;9.20;;;6.97;;
71773;SDS011;59607;52.130;5.430;2023-04-06T02:01:01;14.65;;;7.07;;
71773;SDS011;59607;52.130;5.430;2023-04-06T02:03:33;8.10;;;6.43;;
71773;SDS011;59607;52.130;5.430;2023-04-06T02:06:00;13.05;;;6.32;;
71773;SDS011;59607;52.130;5.430;2023-04-06T02:08:26;11.05;;;6.40;;
71773;SDS011;59607;52.130;5.430;2023-04-06T02:10:57;8.25;;;6.63;;
71773;SDS011;59607;52.130;5.430;2023-04-06T02:13:23;12.55;;;8.35;;
71773;SDS011;59607;52.130;5.430;2023-04-06T02:15:50;10.03;;;6.53;;
71773;SDS011;59607;52.130;5.430;2023-04-06T02:18:33;9.40;;;6.00;;
71773;SDS011;59607;52.130;5.430;2023-04-06T02:21:03;7.80;;;6.00;;
71773;SDS011;59607;52.130;5.430;2023-04-06T02:23:29;8.48;;;5.78;;
71773;SDS011;59607;52.130;5.430;2023-04-06T02:25:56;10.32;;;5.93;;
71773;SDS011;59607;52.130;5.430;2023-04-06T02:28:23;11.87;;;5.57;;
71773;SDS011;59607;52.130;5.430;2023-04-06T02:30:49;11.82;;;6.15;;
71773;SDS011;59607;52.130;5.430;2023-04-06T02:33:15;10.48;;;6.43;;
71773;SDS011;59607;52.130;5.430;2023-04-06T02:35:43;8.00;;;5.57;;
71773;SDS011;59607;52.130;5.430;2023-04-06T02:38:13;7.80;;;5.80;;
71773;SDS011;59607;52.130;5.430;2023-04-06T02:40:39;9.03;;;5.70;;
71773;SDS011;59607;52.130;5.430;2023-04-06T02:43:06;9.48;;;6.15;;
71773;SDS011;59607;52.130;5.430;2023-04-06T02:45:37;8.13;;;5.78;;
71773;SDS011;59607;52.130;5.430;2023-04-06T02:48:04;9.02;;;5.68;;
71773;SDS011;59607;52.130;5.430;2023-04-06T02:50:34;8.43;;;5.93;;
71773;SDS011;59607;52.130;5.430;2023-04-06T02:53:06;7.13;;;5.30;;
71773;SDS011;59607;52.130;5.430;2023-04-06T02:55:32;8.23;;;5.60;;
71773;SDS011;59607;52.130;5.430;2023-04-06T02:58:06;9.40;;;5.75;;
71773;SDS011;59607;52.130;5.430;2023-04-06T03:00:32;8.73;;;5.47;;
71773;SDS011;59607;52.130;5.430;2023-04-06T03:02:59;6.90;;;5.72;;
71773;SDS011;59607;52.130;5.430;2023-04-06T03:05:28;9.73;;;5.83;;
71773;SDS011;59607;52.130;5.430;2023-04-06T03:07:55;5.53;;;4.85;;
71773;SDS011;59607;52.130;5.430;2023-04-06T03:10:21;7.63;;;5.53;;
71773;SDS011;59607;52.130;5.430;2023-04-06T03:12:53;6.57;;;5.40;;
71773;SDS011;59607;52.130;5.430;2023-04-06T03:15:20;8.77;;;5.40;;
71773;SDS011;59607;52.130;5.430;2023-04-06T03:17:47;7.63;;;5.47;;
71773;SDS011;59607;52.130;5.430;2023-04-06T03:20:17;7.78;;;5.55;;
71773;SDS011;59607;52.130;5.430;2023-04-06T03:22:44;6.68;;;5.00;;
71773;SDS011;59607;52.130;5.430;2023-04-06T03:25:10;7.20;;;5.18;;
71773;SDS011;59607;52.130;5.430;2023-04-06T03:27:42;7.47;;;5.18;;
71773;SDS011;59607;52.130;5.430;2023-04-06T03:30:09;5.93;;;5.10;;
71773;SDS011;59607;52.130;5.430;2023-04-06T03:32:39;7.22;;;5.03;;
71773;SDS011;59607;52.130;5.430;2023-04-06T03:35:05;6.00;;;5.05;;
71773;SDS011;59607;52.130;5.430;2023-04-06T03:37:32;7.65;;;5.07;;
71773;SDS011;59607;52.130;5.430;2023-04-06T03:39:58;12.07;;;5.70;;
71773;SDS011;59607;52.130;5.430;2023-04-06T03:42:31;8.40;;;4.80;;
71773;SDS011;59607;52.130;5.430;2023-04-06T03:44:58;7.68;;;4.80;;
71773;SDS011;59607;52.130;5.430;2023-04-06T03:47:27;6.90;;;5.10;;
71773;SDS011;59607;52.130;5.430;2023-04-06T03:49:54;8.48;;;4.93;;
71773;SDS011;59607;52.130;5.430;2023-04-06T03:52:21;6.10;;;5.05;;
71773;SDS011;59607;52.130;5.430;2023-04-06T03:54:49;7.47;;;5.00;;
71773;SDS011;59607;52.130;5.430;2023-04-06T03:57:18;6.78;;;5.20;;
71773;SDS011;59607;52.130;5.430;2023-04-06T03:59:45;7.15;;;5.07;;
71773;SDS011;59607;52.130;5.430;2023-04-06T04:02:17;8.60;;;5.13;;
71773;SDS011;59607;52.130;5.430;2023-04-06T04:04:46;6.35;;;4.70;;
71773;SDS011;59607;52.130;5.430;2023-04-06T04:07:13;7.00;;;5.13;;
71773;SDS011;59607;52.130;5.430;2023-04-06T04:09:41;6.82;;;5.55;;
71773;SDS011;59607;52.130;5.430;2023-04-06T04:12:10;9.20;;;5.38;;
71773;SDS011;59607;52.130;5.430;2023-04-06T04:14:37;6.15;;;4.82;;
71773;SDS011;59607;52.130;5.430;2023-04-06T04:17:03;7.28;;;5.30;;
71773;SDS011;59607;52.130;5.430;2023-04-06T04:19:35;10.70;;;5.97;;
71773;SDS011;59607;52.130;5.430;2023-04-06T04:22:01;5.88;;;5.13;;
71773;SDS011;59607;52.130;5.430;2023-04-06T04:24:30;9.13;;;4.50;;
71773;SDS011;59607;52.130;5.430;2023-04-06T04:27:01;5.30;;;4.80;;
71773;SDS011;59607;52.130;5.430;2023-04-06T04:29:27;7.63;;;5.47;;
71773;SDS011;59607;52.130;5.430;2023-04-06T04:31:53;6.70;;;5.13;;
71773;SDS011;59607;52.130;5.430;2023-04-06T04:34:20;6.03;;;4.90;;
71773;SDS011;59607;52.130;5.430;2023-04-06T04:36:46;8.75;;;4.88;;
71773;SDS011;59607;52.130;5.430;2023-04-06T04:39:13;8.77;;;5.65;;
71773;SDS011;59607;52.130;5.430;2023-04-06T04:41:45;7.38;;;4.97;;
71773;SDS011;59607;52.130;5.430;2023-04-06T04:44:11;8.70;;;5.53;;
71773;SDS011;59607;52.130;5.430;2023-04-06T04:46:41;7.88;;;5.97;;
71773;SDS011;59607;52.130;5.430;2023-04-06T04:49:08;6.75;;;5.50;;
71773;SDS011;59607;52.130;5.430;2023-04-06T04:51:35;8.77;;;6.00;;
71773;SDS011;59607;52.130;5.430;2023-04-06T04:54:11;6.68;;;5.18;;
71773;SDS011;59607;52.130;5.430;2023-04-06T04:56:37;11.00;;;5.33;;
71773;SDS011;59607;52.130;5.430;2023-04-06T04:59:07;7.85;;;5.88;;
71773;SDS011;59607;52.130;5.430;2023-04-06T05:01:36;8.65;;;5.40;;
71773;SDS011;59607;52.130;5.430;2023-04-06T05:04:21;9.98;;;6.15;;
71773;SDS011;59607;52.130;5.430;2023-04-06T05:06:48;7.65;;;6.13;;
71773;SDS011;59607;52.130;5.430;2023-04-06T05:09:21;8.80;;;5.87;;
71773;SDS011;59607;52.130;5.430;2023-04-06T05:11:48;10.45;;;5.72;;
71773;SDS011;59607;52.130;5.430;2023-04-06T05:14:23;9.35;;;6.13;;
71773;SDS011;59607;52.130;5.430;2023-04-06T05:16:49;8.23;;;6.20;;
71773;SDS011;59607;52.130;5.430;2023-04-06T05:19:16;9.52;;;6.10;;
71773;SDS011;59607;52.130;5.430;2023-04-06T05:21:46;10.53;;;6.57;;
71773;SDS011;59607;52.130;5.430;2023-04-06T05:24:13;9.00;;;6.53;;
71773;SDS011;59607;52.130;5.430;2023-04-06T05:26:43;10.93;;;6.90;;
71773;SDS011;59607;52.130;5.430;2023-04-06T05:29:11;12.00;;;6.40;;
71773;SDS011;59607;52.130;5.430;2023-04-06T05:31:37;10.38;;;6.88;;
71773;SDS011;59607;52.130;5.430;2023-04-06T05:34:07;9.17;;;6.50;;
71773;SDS011;59607;52.130;5.430;2023-04-06T05:36:35;12.15;;;7.15;;
71773;SDS011;59607;52.130;5.430;2023-04-06T05:39:01;8.02;;;5.65;;
71773;SDS011;59607;52.130;5.430;2023-04-06T05:41:28;10.27;;;6.70;;
71773;SDS011;59607;52.130;5.430;2023-04-06T05:44:04;12.57;;;7.07;;
71773;SDS011;59607;52.130;5.430;2023-04-06T05:46:37;9.53;;;6.97;;
71773;SDS011;59607;52.130;5.430;2023-04-06T05:49:07;11.55;;;7.00;;
71773;SDS011;59607;52.130;5.430;2023-04-06T05:51:34;12.07;;;6.70;;
71773;SDS011;59607;52.130;5.430;2023-04-06T05:54:01;8.77;;;6.10;;
71773;SDS011;59607;52.130;5.430;2023-04-06T05:56:35;8.38;;;6.05;;
71773;SDS011;59607;52.130;5.430;2023-04-06T05:59:08;9.20;;;6.97;;
71773;SDS011;59607;52.130;5.430;2023-04-06T06:01:35;9.60;;;7.25;;
71773;SDS011;59607;52.130;5.430;2023-04-06T06:04:02;10.75;;;7.38;;
71773;SDS011;59607;52.130;5.430;2023-04-06T06:06:34;15.23;;;7.03;;
71773;SDS011;59607;52.130;5.430;2023-04-06T06:09:01;8.80;;;6.65;;
71773;SDS011;59607;52.130;5.430;2023-04-06T06:11:29;7.10;;;6.23;;
71773;SDS011;59607;52.130;5.430;2023-04-06T06:13:56;12.27;;;7.68;;
71773;SDS011;59607;52.130;5.430;2023-04-06T06:16:22;10.40;;;6.90;;
71773;SDS011;59607;52.130;5.430;2023-04-06T06:18:52;10.63;;;7.47;;
71773;SDS011;59607;52.130;5.430;2023-04-06T06:21:22;12.88;;;8.23;;
71773;SDS011;59607;52.130;5.430;2023-04-06T06:23:48;14.20;;;8.23;;
71773;SDS011;59607;52.130;5.430;2023-04-06T06:26:18;9.68;;;7.28;;
71773;SDS011;59607;52.130;5.430;2023-04-06T06:28:45;11.43;;;7.53;;
71773;SDS011;59607;52.130;5.430;2023-04-06T06:31:11;15.85;;;8.07;;
71773;SDS011;59607;52.130;5.430;2023-04-06T06:33:38;11.52;;;8.23;;
71773;SDS011;59607;52.130;5.430;2023-04-06T06:36:05;10.63;;;7.27;;
71773;SDS011;59607;52.130;5.430;2023-04-06T06:38:31;13.98;;;7.80;;
71773;SDS011;59607;52.130;5.430;2023-04-06T06:40:58;11.93;;;8.18;;
71773;SDS011;59607;52.130;5.430;2023-04-06T06:43:27;15.85;;;8.88;;
71773;SDS011;59607;52.130;5.430;2023-04-06T06:45:56;17.33;;;8.80;;
71773;SDS011;59607;52.130;5.430;2023-04-06T06:48:24;21.53;;;8.80;;
71773;SDS011;59607;52.130;5.430;2023-04-06T06:50:54;12.75;;;8.20;;
71773;SDS011;59607;52.130;5.430;2023-04-06T06:53:24;12.88;;;8.75;;
71773;SDS011;59607;52.130;5.430;2023-04-06T06:55:57;12.07;;;7.75;;
71773;SDS011;59607;52.130;5.430;2023-04-06T06:58:25;15.38;;;8.65;;
71773;SDS011;59607;52.130;5.430;2023-04-06T07:00:59;13.63;;;8.87;;
71773;SDS011;59607;52.130;5.430;2023-04-06T07:03:29;13.60;;;8.30;;
71773;SDS011;59607;52.130;5.430;2023-04-06T07:05:56;12.45;;;7.97;;
71773;SDS011;59607;52.130;5.430;2023-04-06T07:08:27;12.63;;;8.50;;
71773;SDS011;59607;52.130;5.430;2023-04-06T07:10:54;16.38;;;8.52;;
71773;SDS011;59607;52.130;5.430;2023-04-06T07:13:25;10.57;;;8.90;;
71773;SDS011;59607;52.130;5.430;2023-04-06T07:16:00;15.10;;;8.88;;
71773;SDS011;59607;52.130;5.430;2023-04-06T07:18:35;16.20;;;8.07;;
71773;SDS011;59607;52.130;5.430;2023-04-06T07:21:02;14.93;;;9.23;;
71773;SDS011;59607;52.130;5.430;2023-04-06T07:23:31;16.60;;;9.25;;
71773;SDS011;59607;52.130;5.430;2023-04-06T07:25:58;12.13;;;8.53;;
71773;SDS011;59607;52.130;5.430;2023-04-06T07:28:24;14.38;;;9.43;;
71773;SDS011;59607;52.130;5.430;2023-04-06T07:30:51;16.50;;;9.35;;
71773;SDS011;59607;52.130;5.430;2023-04-06T07:33:23;15.60;;;9.40;;
71773;SDS011;59607;52.130;5.430;2023-04-06T07:35:49;13.57;;;9.38;;
71773;SDS011;59607;52.130;5.430;2023-04-06T07:38:19;16.90;;;8.77;;
71773;SDS011;59607;52.130;5.430;2023-04-06T07:40:48;13.27;;;8.80;;
71773;SDS011;59607;52.130;5.430;2023-04-06T07:43:15;15.15;;;9.43;;
71773;SDS011;59607;52.130;5.430;2023-04-06T07:45:56;17.92;;;9.75;;
71773;SDS011;59607;52.130;5.430;2023-04-06T07:48:25;17.17;;;9.57;;
71773;SDS011;59607;52.130;5.430;2023-04-06T07:50:52;13.47;;;9.37;;
71773;SDS011;59607;52.130;5.430;2023-04-06T07:53:34;15.57;;;9.05;;
71773;SDS011;59607;52.130;5.430;2023-04-06T07:56:01;16.58;;;9.52;;
71773;SDS011;59607;52.130;5.430;2023-04-06T07:58:36;15.77;;;9.70;;
71773;SDS011;59607;52.130;5.430;2023-04-06T08:01:03;18.13;;;10.35;;
71773;SDS011;59607;52.130;5.430;2023-04-06T08:03:29;17.73;;;9.60;;
71773;SDS011;59607;52.130;5.430;2023-04-06T08:05:57;15.10;;;9.85;;
71773;SDS011;59607;52.130;5.430;2023-04-06T08:08:26;16.75;;;9.75;;
71773;SDS011;59607;52.130;5.430;2023-04-06T08:10:55;17.33;;;10.50;;
71773;SDS011;59607;52.130;5.430;2023-04-06T08:13:29;13.25;;;9.20;;
71773;SDS011;59607;52.130;5.430;2023-04-06T08:15:57;16.83;;;10.23;;
71773;SDS011;59607;52.130;5.430;2023-04-06T08:18:29;17.45;;;10.35;;
71773;SDS011;59607;52.130;5.430;2023-04-06T08:20:56;16.60;;;9.70;;
71773;SDS011;59607;52.130;5.430;2023-04-06T08:23:32;15.68;;;9.48;;
71773;SDS011;59607;52.130;5.430;2023-04-06T08:25:58;18.02;;;10.25;;
71773;SDS011;59607;52.130;5.430;2023-04-06T08:28:25;12.37;;;9.47;;
71773;SDS011;59607;52.130;5.430;2023-04-06T08:30:57;16.38;;;10.32;;
71773;SDS011;59607;52.130;5.430;2023-04-06T08:33:23;15.98;;;10.05;;
71773;SDS011;59607;52.130;5.430;2023-04-06T08:35:52;13.55;;;10.00;;
71773;SDS011;59607;52.130;5.430;2023-04-06T08:38:22;15.07;;;10.40;;
71773;SDS011;59607;52.130;5.430;2023-04-06T08:40:48;19.13;;;10.60;;
71773;SDS011;59607;52.130;5.430;2023-04-06T08:43:32;15.35;;;10.15;;
71773;SDS011;59607;52.130;5.430;2023-04-06T08:46:06;18.35;;;10.48;;
71773;SDS011;59607;52.130;5.430;2023-04-06T08:48:33;14.82;;;9.70;;
71773;SDS011;59607;52.130;5.430;2023-04-06T08:51:08;19.75;;;11.27;;
71773;SDS011;59607;52.130;5.430;2023-04-06T08:53:35;13.60;;;9.33;;
71773;SDS011;59607;52.130;5.430;2023-04-06T08:56:09;15.07;;;10.65;;
71773;SDS011;59607;52.130;5.430;2023-04-06T08:58:37;17.88;;;10.52;;
71773;SDS011;59607;52.130;5.430;2023-04-06T09:01:13;16.30;;;10.48;;
71773;SDS011;59607;52.130;5.430;2023-04-06T09:03:44;14.65;;;9.98;;
71773;SDS011;59607;52.130;5.430;2023-04-06T09:06:16;16.90;;;11.40;;
71773;SDS011;59607;52.130;5.430;2023-04-06T09:08:43;18.85;;;10.80;;
71773;SDS011;59607;52.130;5.430;2023-04-06T09:11:12;16.15;;;11.30;;
71773;SDS011;59607;52.130;5.430;2023-04-06T09:13:46;20.58;;;11.95;;
71773;SDS011;59607;52.130;5.430;2023-04-06T09:16:17;18.63;;;11.25;;
71773;SDS011;59607;52.130;5.430;2023-04-06T09:18:47;14.23;;;10.77;;
71773;SDS011;59607;52.130;5.430;2023-04-06T09:21:20;15.10;;;10.30;;
71773;SDS011;59607;52.130;5.430;2023-04-06T09:24:00;17.92;;;12.05;;
71773;SDS011;59607;52.130;5.430;2023-04-06T09:26:27;18.67;;;11.50;;
71773;SDS011;59607;52.130;5.430;2023-04-06T09:28:54;18.48;;;11.85;;
71773;SDS011;59607;52.130;5.430;2023-04-06T09:31:32;22.33;;;12.23;;
71773;SDS011;59607;52.130;5.430;2023-04-06T09:33:59;18.52;;;11.85;;
71773;SDS011;59607;52.130;5.430;2023-04-06T09:36:38;17.88;;;12.18;;
71773;SDS011;59607;52.130;5.430;2023-04-06T09:39:20;20.73;;;11.80;;
71773;SDS011;59607;52.130;5.430;2023-04-06T09:42:02;15.52;;;10.88;;
71773;SDS011;59607;52.130;5.430;2023-04-06T09:44:38;17.17;;;10.93;;
71773;SDS011;59607;52.130;5.430;2023-04-06T09:47:05;19.35;;;11.15;;
71773;SDS011;59607;52.130;5.430;2023-04-06T09:49:53;19.05;;;11.68;;
71773;SDS011;59607;52.130;5.430;2023-04-06T09:52:38;18.13;;;11.65;;
71773;SDS011;59607;52.130;5.430;2023-04-06T09:55:28;19.50;;;12.25;;
71773;SDS011;59607;52.130;5.430;2023-04-06T09:58:05;15.40;;;10.87;;
71773;SDS011;59607;52.130;5.430;2023-04-06T10:00:43;18.45;;;12.45;;
71773;SDS011;59607;52.130;5.430;2023-04-06T10:03:54;22.10;;;12.75;;
71773;SDS011;59607;52.130;5.430;2023-04-06T10:06:31;18.20;;;12.35;;
71773;SDS011;59607;52.130;5.430;2023-04-06T10:08:59;20.23;;;13.10;;
71773;SDS011;59607;52.130;5.430;2023-04-06T10:11:32;23.13;;;13.03;;
71773;SDS011;59607;52.130;5.430;2023-04-06T10:14:00;19.98;;;13.38;;
71773;SDS011;59607;52.130;5.430;2023-04-06T10:16:27;20.38;;;12.70;;
71773;SDS011;59607;52.130;5.430;2023-04-06T10:19:02;23.98;;;14.10;;
71773;SDS011;59607;52.130;5.430;2023-04-06T10:21:54;18.45;;;11.95;;
71773;SDS011;59607;52.130;5.430;2023-04-06T10:24:25;22.07;;;11.70;;
71773;SDS011;59607;52.130;5.430;2023-04-06T10:27:02;18.08;;;10.82;;
71773;SDS011;59607;52.130;5.430;2023-04-06T10:29:41;21.48;;;10.50;;
71773;SDS011;59607;52.130;5.430;2023-04-06T10:32:15;15.52;;;9.98;;
71773;SDS011;59607;52.130;5.430;2023-04-06T10:34:47;15.35;;;8.85;;
71773;SDS011;59607;52.130;5.430;2023-04-06T10:37:14;17.07;;;9.23;;
71773;SDS011;59607;52.130;5.430;2023-04-06T10:39:52;16.90;;;8.73;;
71773;SDS011;59607;52.130;5.430;2023-04-06T10:42:36;13.02;;;7.47;;
71773;SDS011;59607;52.130;5.430;2023-04-06T10:45:20;7.57;;;5.80;;
71773;SDS011;59607;52.130;5.430;2023-04-06T10:47:54;6.55;;;5.75;;
71773;SDS011;59607;52.130;5.430;2023-04-06T10:50:22;7.93;;;5.70;;
71773;SDS011;59607;52.130;5.430;2023-04-06T10:53:02;5.15;;;4.22;;
71773;SDS011;59607;52.130;5.430;2023-04-06T10:55:40;5.85;;;4.30;;
71773;SDS011;59607;52.130;5.430;2023-04-06T10:58:07;5.45;;;4.93;;
71773;SDS011;59607;52.130;5.430;2023-04-06T11:00:35;6.05;;;4.57;;
71773;SDS011;59607;52.130;5.430;2023-04-06T11:03:16;6.20;;;4.70;;
71773;SDS011;59607;52.130;5.430;2023-04-06T11:05:46;7.45;;;4.60;;
71773;SDS011;59607;52.130;5.430;2023-04-06T11:08:27;5.05;;;4.07;;
71773;SDS011;59607;52.130;5.430;2023-04-06T11:11:05;4.03;;;3.42;;
71773;SDS011;59607;52.130;5.430;2023-04-06T11:13:43;4.07;;;3.65;;
71773;SDS011;59607;52.130;5.430;2023-04-06T11:18:56;3.42;;;2.83;;
71773;SDS011;59607;52.130;5.430;2023-04-06T11:21:47;3.80;;;3.40;;
71773;SDS011;59607;52.130;5.430;2023-04-06T11:24:25;5.38;;;3.30;;
71773;SDS011;59607;52.130;5.430;2023-04-06T11:26:55;4.10;;;3.00;;
71773;SDS011;59607;52.130;5.430;2023-04-06T11:29:25;4.37;;;2.90;;
71773;SDS011;59607;52.130;5.430;2023-04-06T11:31:59;3.67;;;3.22;;
71773;SDS011;59607;52.130;5.430;2023-04-06T11:34:28;4.97;;;3.15;;
71773;SDS011;59607;52.130;5.430;2023-04-06T11:37:00;7.30;;;3.60;;
71773;SDS011;59607;52.130;5.430;2023-04-06T11:39:30;4.55;;;3.22;;
71773;SDS011;59607;52.130;5.430;2023-04-06T11:42:04;3.63;;;3.20;;
71773;SDS011;59607;52.130;5.430;2023-04-06T11:47:18;3.42;;;2.60;;
71773;SDS011;59607;52.130;5.430;2023-04-06T11:50:12;5.07;;;3.08;;
71773;SDS011;59607;52.130;5.430;2023-04-06T11:52:43;2.97;;;2.58;;
71773;SDS011;59607;52.130;5.430;2023-04-06T11:55:21;3.90;;;3.10;;
71773;SDS011;59607;52.130;5.430;2023-04-06T11:57:51;4.75;;;2.38;;
71773;SDS011;59607;52.130;5.430;2023-04-06T12:00:17;3.60;;;2.97;;
71773;SDS011;59607;52.130;5.430;2023-04-06T12:02:48;3.95;;;3.55;;
71773;SDS011;59607;52.130;5.430;2023-04-06T12:05:15;4.53;;;3.58;;
71773;SDS011;59607;52.130;5.430;2023-04-06T12:07:41;4.53;;;2.73;;
71773;SDS011;59607;52.130;5.430;2023-04-06T12:10:09;5.80;;;3.67;;
71773;SDS011;59607;52.130;5.430;2023-04-06T12:12:41;4.30;;;3.90;;
71773;SDS011;59607;52.130;5.430;2023-04-06T12:15:11;4.10;;;3.70;;
71773;SDS011;59607;52.130;5.430;2023-04-06T12:17:47;6.88;;;3.78;;
71773;SDS011;59607;52.130;5.430;2023-04-06T12:20:25;4.17;;;3.23;;
71773;SDS011;59607;52.130;5.430;2023-04-06T12:22:56;4.65;;;4.15;;
71773;SDS011;59607;52.130;5.430;2023-04-06T12:25:28;4.00;;;3.42;;
71773;SDS011;59607;52.130;5.430;2023-04-06T12:27:57;5.03;;;4.20;;
71773;SDS011;59607;52.130;5.430;2023-04-06T12:30:44;4.93;;;3.78;;
71773;SDS011;59607;52.130;5.430;2023-04-06T12:33:10;7.67;;;4.17;;
71773;SDS011;59607;52.130;5.430;2023-04-06T12:35:37;5.68;;;4.20;;
71773;SDS011;59607;52.130;5.430;2023-04-06T12:38:13;7.25;;;4.30;;
71773;SDS011;59607;52.130;5.430;2023-04-06T12:40:40;4.28;;;3.53;;
71773;SDS011;59607;52.130;5.430;2023-04-06T12:43:10;5.05;;;4.55;;
71773;SDS011;59607;52.130;5.430;2023-04-06T12:45:37;4.97;;;4.20;;
71773;SDS011;59607;52.130;5.430;2023-04-06T12:48:03;5.00;;;4.50;;
71773;SDS011;59607;52.130;5.430;2023-04-06T12:50:30;5.55;;;4.20;;
71773;SDS011;59607;52.130;5.430;2023-04-06T12:52:57;5.10;;;4.05;;
71773;SDS011;59607;52.130;5.430;2023-04-06T12:55:23;5.28;;;4.60;;
71773;SDS011;59607;52.130;5.430;2023-04-06T12:57:49;5.30;;;4.57;;
71773;SDS011;59607;52.130;5.430;2023-04-06T13:00:17;5.53;;;4.75;;
71773;SDS011;59607;52.130;5.430;2023-04-06T13:02:56;4.78;;;3.83;;
71773;SDS011;59607;52.130;5.430;2023-04-06T13:05:30;6.07;;;3.92;;
71773;SDS011;59607;52.130;5.430;2023-04-06T13:07:58;7.25;;;4.35;;
71773;SDS011;59607;52.130;5.430;2023-04-06T13:10:32;5.53;;;4.40;;
71773;SDS011;59607;52.130;5.430;2023-04-06T13:12:59;5.97;;;4.10;;
71773;SDS011;59607;52.130;5.430;2023-04-06T13:15:31;4.95;;;4.35;;
71773;SDS011;59607;52.130;5.430;2023-04-06T13:18:02;7.22;;;5.07;;
71773;SDS011;59607;52.130;5.430;2023-04-06T13:20:36;5.45;;;4.25;;
71773;SDS011;59607;52.130;5.430;2023-04-06T13:23:03;6.57;;;4.67;;
71773;SDS011;59607;52.130;5.430;2023-04-06T13:25:32;5.25;;;4.75;;
71773;SDS011;59607;52.130;5.430;2023-04-06T13:28:00;5.68;;;4.45;;
71773;SDS011;59607;52.130;5.430;2023-04-06T13:30:27;6.32;;;5.15;;
71773;SDS011;59607;52.130;5.430;2023-04-06T13:32:56;5.97;;;4.80;;
71773;SDS011;59607;52.130;5.430;2023-04-06T13:35:26;5.63;;;5.03;;
71773;SDS011;59607;52.130;5.430;2023-04-06T13:37:53;5.63;;;5.03;;
71773;SDS011;59607;52.130;5.430;2023-04-06T13:40:21;5.03;;;4.60;;
71773;SDS011;59607;52.130;5.430;2023-04-06T13:42:48;6.95;;;4.22;;
71773;SDS011;59607;52.130;5.430;2023-04-06T13:45:15;10.65;;;5.05;;
71773;SDS011;59607;52.130;5.430;2023-04-06T13:47:44;5.30;;;4.80;;
71773;SDS011;59607;52.130;5.430;2023-04-06T13:50:17;6.85;;;4.97;;
71773;SDS011;59607;52.130;5.430;2023-04-06T13:53:05;5.03;;;4.63;;
71773;SDS011;59607;52.130;5.430;2023-04-06T13:55:41;6.38;;;4.40;;
71773;SDS011;59607;52.130;5.430;2023-04-06T13:58:07;5.85;;;5.25;;
71773;SDS011;59607;52.130;5.430;2023-04-06T14:00:40;6.60;;;4.77;;
71773;SDS011;59607;52.130;5.430;2023-04-06T14:03:06;8.50;;;5.00;;
71773;SDS011;59607;52.130;5.430;2023-04-06T14:05:36;6.80;;;4.95;;
71773;SDS011;59607;52.130;5.430;2023-04-06T14:08:03;5.50;;;4.85;;
71773;SDS011;59607;52.130;5.430;2023-04-06T14:10:29;4.75;;;4.25;;
71773;SDS011;59607;52.130;5.430;2023-04-06T14:12:56;6.43;;;4.43;;
71773;SDS011;59607;52.130;5.430;2023-04-06T14:15:27;5.30;;;4.57;;
71773;SDS011;59607;52.130;5.430;2023-04-06T14:17:56;5.72;;;4.53;;
71773;SDS011;59607;52.130;5.430;2023-04-06T14:20:38;5.88;;;4.50;;
71773;SDS011;59607;52.130;5.430;2023-04-06T14:23:05;5.75;;;4.72;;
71773;SDS011;59607;52.130;5.430;2023-04-06T14:25:35;6.80;;;5.03;;
71773;SDS011;59607;52.130;5.430;2023-04-06T14:28:02;4.88;;;4.30;;
71773;SDS011;59607;52.130;5.430;2023-04-06T14:30:32;7.43;;;4.47;;
71773;SDS011;59607;52.130;5.430;2023-04-06T14:33:01;5.80;;;5.15;;
71773;SDS011;59607;52.130;5.430;2023-04-06T14:35:29;5.47;;;4.47;;
71773;SDS011;59607;52.130;5.430;2023-04-06T14:38:02;6.17;;;4.90;;
71773;SDS011;59607;52.130;5.430;2023-04-06T14:40:28;5.18;;;4.65;;
71773;SDS011;59607;52.130;5.430;2023-04-06T14:42:54;5.15;;;4.00;;
71773;SDS011;59607;52.130;5.430;2023-04-06T14:45:24;5.75;;;4.25;;
71773;SDS011;59607;52.130;5.430;2023-04-06T14:47:51;5.97;;;5.38;;
71773;SDS011;59607;52.130;5.430;2023-04-06T14:50:21;5.47;;;4.57;;
71773;SDS011;59607;52.130;5.430;2023-04-06T14:52:51;6.28;;;4.32;;
71773;SDS011;59607;52.130;5.430;2023-04-06T14:55:18;6.70;;;4.95;;
71773;SDS011;59607;52.130;5.430;2023-04-06T14:57:53;7.65;;;5.13;;
71773;SDS011;59607;52.130;5.430;2023-04-06T15:00:19;5.50;;;4.88;;
71773;SDS011;59607;52.130;5.430;2023-04-06T15:02:49;6.17;;;5.37;;
71773;SDS011;59607;52.130;5.430;2023-04-06T15:05:15;11.65;;;5.32;;